createdAt,value
2022-10-05T00:01:23.445Z,21.53
2022-10-05T00:04:15.623Z,20.40
2022-10-05T00:07:14.304Z,20.37
2022-10-05T00:10:01.341Z,20.50
2022-10-05T00:12:41.605Z,21.90
2022-10-05T00:15:16.791Z,21.30
2022-10-05T00:17:49.175Z,20.80
2022-10-05T00:20:52.929Z,21.20
2022-10-05T00:24:16.552Z,20.90
2022-10-05T00:26:54.173Z,20.93
2022-10-05T00:29:35.856Z,21.33
2022-10-05T00:32:38.708Z,21.13
2022-10-05T00:35:09.641Z,21.30
2022-10-05T00:37:55.917Z,21.13
2022-10-05T00:40:53.561Z,21.50
2022-10-05T00:44:01.796Z,21.80
2022-10-05T00:46:47.722Z,20.87
2022-10-05T00:49:41.892Z,21.80
2022-10-05T00:52:42.749Z,21.80
2022-10-05T00:55:22.567Z,21.97
2022-10-05T00:59:04.463Z,21.90
2022-10-05T01:01:45.382Z,21.93
2022-10-05T01:08:09.945Z,21.60
2022-10-05T01:11:00.514Z,22.00
2022-10-05T01:13:42.219Z,22.30
2022-10-05T01:24:22.573Z,21.40
2022-10-05T01:27:23.094Z,22.30
2022-10-05T01:30:13.345Z,22.40
2022-10-05T01:33:13.394Z,21.93
2022-10-05T01:35:58.601Z,22.70
2022-10-05T01:38:39.758Z,22.13
2022-10-05T01:41:32.334Z,23.33
2022-10-05T01:44:22.896Z,22.83
2022-10-05T01:47:18.799Z,22.90
2022-10-05T01:50:24.911Z,23.17
2022-10-05T01:53:23.711Z,23.23
2022-10-05T01:56:01.159Z,23.83
2022-10-05T01:58:37.668Z,23.70
2022-10-05T02:01:14.942Z,24.30
2022-10-05T02:03:52.817Z,24.10
2022-10-05T02:07:02.166Z,24.40
2022-10-05T02:09:43.128Z,24.30
2022-10-05T02:12:16.576Z,24.40
2022-10-05T02:15:33.577Z,24.57
2022-10-05T02:18:22.300Z,24.10
2022-10-05T02:20:56.367Z,25.27
2022-10-05T02:24:20.415Z,24.63
2022-10-05T02:30:42.550Z,25.23
2022-10-05T02:34:05.317Z,26.63
2022-10-05T02:36:56.793Z,26.70
2022-10-05T02:39:49.658Z,26.90
2022-10-05T02:42:40.300Z,26.60
2022-10-05T02:45:28.740Z,27.03
2022-10-05T02:48:13.968Z,26.37
2022-10-05T02:54:56.723Z,25.93
2022-10-05T02:57:40.063Z,26.03
2022-10-05T03:00:37.252Z,26.13
2022-10-05T03:03:22.623Z,25.00
2022-10-05T03:06:16.649Z,24.60
2022-10-05T03:16:40.490Z,23.60
2022-10-05T03:19:30.692Z,23.90
2022-10-05T03:22:36.617Z,24.00
2022-10-05T03:28:59.488Z,23.03
2022-10-05T03:31:44.978Z,22.57
2022-10-05T03:34:29.123Z,21.93
2022-10-05T03:37:11.886Z,21.90
2022-10-05T03:39:59.127Z,22.40
2022-10-05T03:43:06.418Z,21.90
2022-10-05T03:46:09.937Z,21.40
2022-10-05T03:48:53.640Z,21.37
2022-10-05T03:51:37.555Z,20.33
2022-10-05T03:54:48.093Z,19.93
2022-10-05T03:57:20.098Z,21.07
2022-10-05T04:00:25.784Z,20.67
2022-10-05T04:03:06.144Z,20.63
2022-10-05T04:06:49.758Z,20.70
2022-10-05T04:09:52.328Z,20.37
2022-10-05T04:12:37.113Z,20.40
2022-10-05T04:15:20.700Z,20.37
2022-10-05T04:17:56.103Z,21.23
2022-10-05T04:21:04.909Z,20.27
2022-10-05T04:27:24.848Z,20.57
2022-10-05T04:29:59.443Z,20.70
2022-10-05T04:36:25.484Z,19.20
2022-10-05T04:39:06.219Z,19.87
2022-10-05T04:42:12.264Z,19.60
2022-10-05T04:45:15.687Z,19.83
2022-10-05T04:48:40.376Z,19.87
2022-10-05T04:51:36.540Z,22.00
2022-10-05T04:54:20.944Z,19.47
2022-10-05T04:56:54.264Z,19.57
2022-10-05T05:03:30.688Z,18.93
2022-10-05T05:06:17.309Z,18.90
2022-10-05T05:09:11.978Z,18.57
2022-10-05T05:11:50.262Z,18.57
2022-10-05T05:14:40.350Z,18.17
2022-10-05T05:17:26.231Z,19.20
2022-10-05T05:20:09.150Z,19.60
2022-10-05T05:22:44.304Z,19.40
2022-10-05T05:25:26.080Z,19.20
2022-10-05T05:28:18.949Z,19.70
2022-10-05T05:30:53.785Z,20.40
2022-10-05T05:33:46.941Z,19.37
2022-10-05T05:36:46.603Z,19.70
2022-10-05T05:39:47.657Z,19.70
2022-10-05T05:42:39.230Z,20.37
2022-10-05T05:45:36.104Z,19.40
2022-10-05T05:51:58.362Z,20.00
2022-10-05T05:54:34.152Z,19.57
2022-10-05T05:57:11.121Z,20.30
2022-10-05T06:00:01.385Z,19.30
2022-10-05T06:02:44.868Z,20.50
2022-10-05T06:05:30.040Z,21.53
2022-10-05T06:08:05.432Z,20.83
2022-10-05T06:11:06.253Z,20.40
2022-10-05T06:13:59.953Z,21.63
2022-10-05T06:16:45.907Z,21.55
2022-10-05T06:20:05.260Z,20.30
2022-10-05T06:23:03.435Z,20.60
2022-10-05T06:26:09.731Z,20.27
2022-10-05T06:28:59.971Z,20.50
2022-10-05T06:32:06.146Z,19.10
2022-10-05T06:35:14.731Z,18.83
2022-10-05T06:38:28.286Z,19.00
2022-10-05T06:41:19.976Z,19.13
2022-10-05T06:43:57.089Z,19.40
2022-10-05T06:46:40.536Z,19.03
2022-10-05T06:49:19.749Z,18.60
2022-10-05T06:52:15.482Z,19.53
2022-10-05T06:55:32.957Z,20.10
2022-10-05T07:02:05.926Z,19.43
2022-10-05T07:08:30.582Z,19.70
2022-10-05T07:11:31.298Z,19.07
2022-10-05T07:14:21.237Z,19.60
2022-10-05T07:20:35.839Z,18.40
2022-10-05T07:23:46.310Z,18.70
2022-10-05T07:26:35.069Z,18.03
2022-10-05T07:29:23.849Z,18.80
2022-10-05T07:32:08.350Z,18.50
2022-10-05T07:34:50.536Z,18.80
2022-10-05T07:37:45.049Z,18.30
2022-10-05T07:40:20.625Z,18.50
2022-10-05T07:44:07.817Z,18.13
2022-10-05T07:46:52.802Z,17.60
2022-10-05T07:50:12.682Z,18.20
2022-10-05T07:52:56.650Z,18.63
2022-10-05T07:55:52.607Z,18.07
2022-10-05T07:59:10.912Z,18.00
2022-10-05T08:02:28.926Z,18.60
2022-10-05T08:05:49.073Z,18.90
2022-10-05T08:09:09.304Z,18.37
2022-10-05T08:16:28.951Z,20.07
2022-10-05T08:19:48.969Z,20.03
2022-10-05T08:27:08.836Z,17.67
2022-10-05T08:33:40.662Z,17.90
2022-10-05T08:36:54.011Z,17.90
2022-10-05T08:39:33.276Z,17.90
2022-10-05T08:42:35.475Z,17.97
2022-10-05T08:45:45.461Z,17.87
2022-10-05T08:49:02.098Z,18.20
2022-10-05T08:52:08.652Z,17.80
2022-10-05T08:55:17.280Z,17.60
2022-10-05T09:01:52.685Z,17.60
2022-10-05T09:04:38.602Z,17.90
2022-10-05T09:07:44.341Z,17.30
2022-10-05T09:10:55.101Z,16.97
2022-10-05T09:17:45.707Z,17.63
2022-10-05T09:20:44.850Z,17.60
2022-10-05T09:23:38.909Z,17.37
2022-10-05T09:26:59.637Z,17.20
2022-10-05T09:30:27.980Z,18.43
2022-10-05T09:33:42.840Z,17.50
2022-10-05T09:37:04.138Z,17.07
2022-10-05T09:40:27.864Z,17.13
2022-10-05T09:43:32.087Z,17.30
2022-10-05T09:46:40.655Z,18.33
2022-10-05T09:49:43.315Z,17.23
2022-10-05T09:53:03.214Z,17.17
2022-10-05T09:56:16.275Z,17.20
2022-10-05T09:59:32.320Z,17.03
2022-10-05T10:02:31.938Z,17.50
2022-10-05T10:05:43.438Z,17.20
2022-10-05T10:08:28.870Z,17.40
2022-10-05T10:11:36.202Z,17.20
2022-10-05T10:15:03.006Z,17.93
2022-10-05T10:17:48.613Z,17.03
2022-10-05T10:20:34.897Z,17.53
2022-10-05T10:23:31.556Z,17.40
2022-10-05T10:26:55.471Z,17.90
2022-10-05T10:30:19.142Z,17.07
2022-10-05T10:33:30.283Z,17.60
2022-10-05T10:36:14.867Z,18.03
2022-10-05T10:39:13.423Z,17.23
2022-10-05T10:42:28.915Z,17.07
2022-10-05T10:45:19.343Z,17.10
2022-10-05T10:48:03.280Z,16.97
2022-10-05T10:51:01.201Z,16.87
2022-10-05T10:53:42.270Z,17.30
2022-10-05T10:56:30.762Z,17.47
2022-10-05T10:59:33.165Z,17.53
2022-10-05T11:02:37.389Z,17.37
2022-10-05T11:05:40.016Z,17.20
2022-10-05T11:08:34.148Z,17.17
2022-10-05T11:11:36.278Z,19.33
2022-10-05T11:14:36.727Z,17.30
2022-10-05T11:17:43.212Z,16.83
2022-10-05T11:20:46.095Z,16.70
2022-10-05T11:23:36.608Z,16.77
2022-10-05T11:26:44.747Z,16.93
2022-10-05T11:33:44.821Z,16.90
2022-10-05T11:36:59.532Z,16.50
2022-10-05T11:40:04.135Z,16.53
2022-10-05T11:43:15.343Z,16.90
2022-10-05T11:45:59.593Z,16.40
2022-10-05T11:48:53.377Z,16.87
2022-10-05T11:51:38.609Z,16.73
2022-10-05T11:54:22.809Z,17.10
2022-10-05T11:56:57.813Z,17.70
2022-10-05T11:59:54.122Z,17.40
2022-10-05T12:03:14.373Z,17.03
2022-10-05T12:06:27.096Z,17.13
2022-10-05T12:09:23.197Z,17.87
2022-10-05T12:12:16.851Z,17.07
2022-10-05T12:15:18.208Z,17.97
2022-10-05T12:17:53.598Z,17.20
2022-10-05T12:20:29.439Z,17.60
2022-10-05T12:23:04.266Z,17.50
2022-10-05T12:25:46.887Z,18.07
2022-10-05T12:28:21.248Z,17.40
2022-10-05T12:31:08.933Z,17.90
2022-10-05T12:33:57.712Z,17.33
2022-10-05T12:37:02.495Z,16.73
2022-10-05T12:40:08.919Z,16.70
2022-10-05T12:43:04.785Z,17.20
2022-10-05T12:45:50.156Z,16.80
2022-10-05T12:48:56.076Z,17.20
2022-10-05T12:51:44.205Z,16.97
2022-10-05T12:54:22.605Z,16.50
2022-10-05T12:56:56.307Z,16.50
2022-10-05T12:59:57.313Z,16.83
2022-10-05T13:02:39.035Z,16.80
2022-10-05T13:05:24.210Z,17.10
2022-10-05T13:08:19.089Z,16.70
2022-10-05T13:11:05.363Z,17.20
2022-10-05T13:13:44.483Z,16.90
2022-10-05T13:16:25.820Z,16.50
2022-10-05T13:19:16.671Z,16.40
2022-10-05T13:22:22.650Z,16.40
2022-10-05T13:25:06.667Z,16.40
2022-10-05T13:27:41.873Z,16.90
2022-10-05T13:30:17.096Z,16.50
2022-10-05T13:32:58.525Z,17.03
2022-10-05T13:35:44.989Z,16.90
2022-10-05T13:38:26.469Z,16.60
2022-10-05T13:41:11.591Z,16.80
2022-10-05T13:43:59.829Z,16.40
2022-10-05T13:46:37.394Z,16.50
2022-10-05T13:49:21.597Z,16.43
2022-10-05T13:51:58.614Z,16.63
2022-10-05T13:54:37.946Z,16.77
2022-10-05T13:57:21.272Z,16.60
2022-10-05T13:59:56.135Z,16.60
2022-10-05T14:02:30.855Z,17.47
2022-10-05T14:05:18.006Z,16.80
2022-10-05T14:07:55.393Z,17.00
2022-10-05T14:10:50.463Z,17.97
2022-10-05T14:13:33.442Z,16.83
2022-10-05T14:16:20.067Z,16.27
2022-10-05T14:19:18.625Z,16.37
2022-10-05T14:21:55.704Z,17.00
2022-10-05T14:24:45.899Z,17.87
2022-10-05T14:27:39.594Z,16.50
2022-10-05T14:30:22.133Z,17.00
2022-10-05T14:32:55.381Z,17.30
2022-10-05T14:35:44.879Z,16.60
2022-10-05T14:38:21.260Z,16.80
2022-10-05T14:41:05.706Z,16.87
2022-10-05T14:43:35.861Z,16.90
2022-10-05T14:46:28.114Z,16.90
2022-10-05T14:49:18.244Z,17.00
2022-10-05T14:51:46.484Z,17.13
2022-10-05T14:54:41.897Z,17.03
2022-10-05T14:57:22.591Z,17.40
2022-10-05T15:00:11.644Z,16.80
2022-10-05T15:03:07.014Z,16.83
2022-10-05T15:05:54.689Z,17.20
2022-10-05T15:08:51.227Z,16.93
2022-10-05T15:11:46.372Z,17.30
2022-10-05T15:14:24.665Z,17.50
2022-10-05T15:17:17.915Z,17.60
2022-10-05T15:19:53.902Z,17.40
2022-10-05T15:22:46.517Z,17.70
2022-10-05T15:25:18.195Z,17.43
2022-10-05T15:28:07.395Z,16.53
2022-10-05T15:30:40.083Z,16.07
2022-10-05T15:33:15.856Z,16.50
2022-10-05T15:35:55.437Z,16.53
2022-10-05T15:38:37.510Z,16.70
2022-10-05T15:41:15.977Z,16.60
2022-10-05T15:44:08.487Z,16.90
2022-10-05T15:46:47.687Z,16.70
2022-10-05T15:49:28.705Z,16.50
2022-10-05T15:52:09.993Z,15.97
2022-10-05T15:55:05.168Z,16.10
2022-10-05T15:57:39.905Z,16.10
2022-10-05T16:00:13.543Z,16.57
2022-10-05T16:02:52.113Z,17.40
2022-10-05T16:05:54.923Z,16.83
2022-10-05T16:09:01.292Z,16.50
2022-10-05T16:11:40.503Z,16.53
2022-10-05T16:14:43.119Z,16.40
2022-10-05T16:17:34.830Z,16.40
2022-10-05T16:20:22.464Z,16.30
2022-10-05T16:23:08.927Z,16.17
2022-10-05T16:25:48.717Z,16.60
2022-10-05T16:28:32.816Z,16.30
2022-10-05T16:31:13.361Z,16.30
2022-10-05T16:33:55.476Z,16.30
2022-10-05T16:36:40.340Z,15.90
2022-10-05T16:39:16.857Z,16.17
2022-10-05T16:42:03.987Z,15.80
2022-10-05T16:44:41.964Z,16.60
2022-10-05T16:47:35.623Z,16.37
2022-10-05T16:50:22.681Z,16.20
2022-10-05T16:52:56.569Z,16.47
2022-10-05T16:55:33.163Z,16.80
2022-10-05T16:58:05.276Z,17.07
2022-10-05T17:00:52.013Z,17.83
2022-10-05T17:03:40.883Z,17.80
2022-10-05T17:06:41.283Z,17.20
2022-10-05T17:09:32.221Z,17.70
2022-10-05T17:12:31.356Z,17.30
2022-10-05T17:15:32.830Z,17.40
2022-10-05T17:18:43.316Z,17.40
2022-10-05T17:21:17.812Z,17.27
2022-10-05T17:24:05.469Z,18.00
2022-10-05T17:27:03.632Z,17.60
2022-10-05T17:29:52.501Z,17.50
2022-10-05T17:33:02.915Z,17.70
2022-10-05T17:35:53.634Z,17.60
2022-10-05T17:38:41.832Z,17.90
2022-10-05T17:41:21.253Z,17.67
2022-10-05T17:44:35.377Z,17.53
2022-10-05T17:47:14.051Z,17.23
2022-10-05T17:50:29.858Z,17.57
2022-10-05T17:53:38.963Z,17.43
2022-10-05T17:56:16.206Z,18.00
2022-10-05T17:59:04.221Z,18.17
2022-10-05T18:01:36.066Z,18.07
2022-10-05T18:04:33.737Z,18.07
2022-10-05T18:07:25.532Z,17.37
2022-10-05T18:10:00.743Z,18.07
2022-10-05T18:12:45.385Z,18.37
2022-10-05T18:15:48.401Z,18.23
2022-10-05T18:19:05.408Z,18.27
2022-10-05T18:21:40.173Z,18.03
2022-10-05T18:24:39.129Z,18.97
2022-10-05T18:27:34.334Z,18.40
2022-10-05T18:30:21.361Z,18.67
2022-10-05T18:33:20.719Z,18.57
2022-10-05T18:36:19.823Z,18.77
2022-10-05T18:39:11.185Z,18.73
2022-10-05T18:41:57.484Z,19.40
2022-10-05T18:44:44.617Z,18.73
2022-10-05T18:47:20.806Z,18.80
2022-10-05T18:50:06.285Z,18.67
2022-10-05T18:52:54.531Z,19.40
2022-10-05T18:55:32.842Z,19.40
2022-10-05T18:58:15.910Z,20.40
2022-10-05T19:01:10.987Z,18.23
2022-10-05T19:03:50.121Z,18.57
2022-10-05T19:06:26.212Z,18.60
2022-10-05T19:09:26.860Z,18.60
2022-10-05T19:12:04.630Z,18.87
2022-10-05T19:14:52.106Z,18.07
2022-10-05T19:18:04.518Z,19.60
2022-10-05T19:20:37.562Z,19.30
2022-10-05T19:23:40.974Z,18.77
2022-10-05T19:26:25.810Z,18.53
2022-10-05T19:29:15.965Z,18.93
2022-10-05T19:32:25.299Z,19.00
2022-10-05T19:35:16.968Z,19.30
2022-10-05T19:37:54.821Z,19.27
2022-10-05T19:41:04.614Z,19.20
2022-10-05T19:43:50.732Z,19.43
2022-10-05T19:46:44.111Z,19.90
2022-10-05T19:49:43.016Z,19.60
2022-10-05T19:52:21.002Z,19.70
2022-10-05T19:55:05.347Z,19.90
2022-10-05T19:57:37.791Z,19.80
2022-10-05T20:00:37.832Z,21.00
2022-10-05T20:03:13.834Z,22.33
2022-10-05T20:05:42.208Z,23.00
2022-10-05T20:08:17.076Z,24.63
2022-10-05T20:10:46.258Z,22.63
2022-10-05T20:13:22.717Z,22.60
2022-10-05T20:16:41.302Z,23.23
2022-10-05T20:19:47.708Z,23.40
2022-10-05T20:22:30.757Z,23.77
2022-10-05T20:25:01.256Z,24.60
2022-10-05T20:27:46.550Z,25.63
2022-10-05T20:30:16.653Z,26.77
2022-10-05T20:32:45.712Z,28.43
2022-10-05T20:35:16.509Z,30.23
2022-10-05T20:37:44.664Z,31.87
2022-10-05T20:40:14.801Z,32.57
2022-10-05T20:42:42.965Z,36.37
2022-10-05T20:45:12.060Z,36.47
2022-10-05T20:47:40.563Z,38.20
2022-10-05T20:50:10.448Z,40.33
2022-10-05T20:52:40.051Z,40.70
2022-10-05T20:55:12.160Z,41.60
2022-10-05T20:57:42.250Z,44.13
2022-10-05T21:00:12.300Z,46.37
2022-10-05T21:02:40.756Z,48.00
2022-10-05T21:05:10.625Z,50.60
2022-10-05T21:07:40.957Z,51.77
2022-10-05T21:10:09.951Z,53.50
2022-10-05T21:12:38.430Z,53.70
2022-10-05T21:15:08.362Z,53.27
2022-10-05T21:17:38.060Z,54.40
2022-10-05T21:20:07.433Z,55.00
2022-10-05T21:22:36.379Z,58.27
2022-10-05T21:25:08.986Z,57.40
2022-10-05T21:27:37.206Z,58.93
2022-10-05T21:30:05.998Z,64.27
2022-10-05T21:32:34.140Z,60.83
2022-10-05T21:35:03.345Z,61.93
2022-10-05T21:37:32.547Z,62.93
2022-10-05T21:40:01.058Z,63.20
2022-10-05T21:42:30.659Z,62.23
2022-10-05T21:44:58.943Z,63.40
2022-10-05T21:47:27.187Z,61.83
2022-10-05T21:50:05.280Z,62.63
2022-10-05T21:52:34.752Z,63.93
2022-10-05T21:55:03.451Z,62.37
2022-10-05T21:57:35.770Z,62.80
2022-10-05T22:00:05.756Z,65.27
2022-10-05T22:02:33.974Z,63.33
2022-10-05T22:05:02.130Z,64.13
2022-10-05T22:07:30.406Z,64.10
2022-10-05T22:09:59.631Z,65.60
2022-10-05T22:12:28.290Z,63.27
2022-10-05T22:14:57.845Z,64.10
2022-10-05T22:17:29.675Z,65.90
2022-10-05T22:19:58.845Z,66.13
2022-10-05T22:22:27.713Z,67.00
2022-10-05T22:24:56.520Z,67.07
2022-10-05T22:27:26.985Z,69.17
2022-10-05T22:29:58.581Z,68.20
2022-10-05T22:32:26.983Z,68.27
2022-10-05T22:34:55.162Z,68.00
2022-10-05T22:37:24.505Z,68.17
2022-10-05T22:39:55.244Z,70.17
2022-10-05T22:42:23.510Z,72.43
2022-10-05T22:44:51.791Z,69.33
2022-10-05T22:47:23.430Z,70.87
2022-10-05T22:49:51.792Z,70.83
2022-10-05T22:52:20.009Z,71.87
2022-10-05T22:54:48.300Z,70.83
2022-10-05T22:57:16.698Z,67.90
2022-10-05T22:59:45.223Z,70.10
2022-10-05T23:02:14.153Z,70.57
2022-10-05T23:04:43.810Z,68.17
2022-10-05T23:07:12.148Z,65.07
2022-10-05T23:09:40.400Z,66.23
2022-10-05T23:12:08.625Z,64.77
2022-10-05T23:14:37.784Z,62.77
2022-10-05T23:17:07.982Z,65.00
2022-10-05T23:19:36.216Z,63.90
2022-10-05T23:22:06.772Z,62.67
2022-10-05T23:24:35.477Z,61.63
2022-10-05T23:27:03.797Z,62.77
2022-10-05T23:29:32.038Z,61.30
2022-10-05T23:32:01.287Z,58.90
2022-10-05T23:34:29.525Z,57.07
2022-10-05T23:36:57.809Z,57.47
2022-10-05T23:39:27.361Z,55.50
2022-10-05T23:41:56.629Z,52.77
2022-10-05T23:44:24.817Z,51.77
2022-10-05T23:46:54.196Z,50.07
2022-10-05T23:49:24.422Z,47.87
2022-10-05T23:51:52.757Z,47.40
2022-10-05T23:54:21.016Z,47.17
2022-10-05T23:56:50.777Z,46.27
2022-10-05T23:59:21.017Z,43.37
